ADDS METAR Data INFO
IDs: Format: Raw Decoded Include TAF

Data at: 1936 UTC 19 Jul 2018

KI67 191915Z AUTO 18005KT 10SM CLR 28/10 A2999 RMK AO1
KI67 191855Z AUTO 12005KT 10SM CLR 28/10 A3000 RMK AO1
KI67 191835Z AUTO 15007KT 10SM CLR 28/11 A3000 RMK AO1
KI67 191815Z AUTO 13003KT 10SM CLR 28/12 A3000 RMK AO1
KI67 191755Z AUTO 17005KT 10SM CLR 27/11 A3000 RMK AO1
KI67 191735Z AUTO 11007KT 070V130 10SM CLR 28/12 A3001 RMK AO1
KI67 191715Z AUTO 16004KT 10SM CLR 28/11 A3001 RMK AO1
KI67 191655Z AUTO 14006KT 10SM CLR 27/11 A3002 RMK AO1
KI67 191635Z AUTO 07003KT 10SM CLR 27/11 A3003 RMK AO1
KI67 191615Z AUTO 10006KT 10SM CLR 27/12 A3003 RMK AO1
KI67 191555Z AUTO 12007KT 10SM CLR 27/12 A3004 RMK AO1
KI67 191535Z AUTO 10006KT 10SM CLR 27/12 A3004 RMK AO1
KI67 191515Z AUTO 13008KT 10SM CLR 26/12 A3004 RMK AO1
KI67 191455Z AUTO 13004KT 10SM CLR 26/13 A3005 RMK AO1
KI67 191435Z AUTO 10005KT 10SM CLR 25/16 A3005 RMK AO1
KI67 191415Z AUTO 07005KT 10SM CLR 24/15 A3006 RMK AO1
KI67 191355Z AUTO 03003KT 10SM CLR 22/16 A3006 RMK AO1
KI67 191335Z AUTO 00000KT 10SM CLR 21/16 A3006 RMK AO1
KI67 191315Z AUTO 01003KT 10SM CLR 20/15 A3006 RMK AO1
KI67 191255Z AUTO 00000KT 10SM CLR 20/15 A3006 RMK AO1
KI67 191235Z AUTO 00000KT 10SM CLR 19/15 A3005 RMK AO1
KI67 191215Z AUTO 00000KT 10SM CLR 18/14 A3006 RMK AO1
KI67 191155Z AUTO 00000KT 10SM SCT065 17/14 A3005 RMK AO1
KI67 191135Z AUTO 00000KT 10SM SCT065 17/14 A3005 RMK AO1
KI67 191115Z AUTO 00000KT 10SM CLR 16/13 A3005 RMK AO1
KI67 191055Z AUTO 00000KT 10SM CLR 15/13 A3004 RMK AO1
KI67 191035Z AUTO 00000KT 10SM CLR 16/13 A3004 RMK AO1
KI67 191015Z AUTO 00000KT 10SM CLR 16/13 A3004 RMK AO1
KI67 190955Z AUTO 00000KT 10SM CLR 16/13 A3004 RMK AO1
KI67 190935Z AUTO 02003KT 10SM CLR 15/13 A3004 RMK AO1
KI67 190915Z AUTO 00000KT 10SM CLR 15/13 A3003 RMK AO1
KI67 190855Z AUTO 00000KT 10SM CLR 15/13 A3003 RMK AO1
KI67 190835Z AUTO 00000KT 10SM CLR 15/13 A3003 RMK AO1
KI67 190815Z AUTO 00000KT 10SM SCT065 16/14 A3003 RMK AO1
KI67 190755Z AUTO 00000KT 10SM BKN065 16/14 A3003 RMK AO1
KI67 190735Z AUTO 00000KT 10SM SCT065 16/15 A3003 RMK AO1
KI67 190715Z AUTO 00000KT 10SM SCT070 16/15 A3003 RMK AO1
KI67 190655Z AUTO 00000KT 10SM SCT070 17/15 A3003 RMK AO1
KI67 190635Z AUTO 00000KT 10SM SCT070 18/15 A3004 RMK AO1
KI67 190615Z AUTO 00000KT 10SM BKN070 17/15 A3004 RMK AO1
KI67 190555Z AUTO 00000KT 10SM BKN070 18/15 A3004 RMK AO1
KI67 190535Z AUTO 00000KT 10SM BKN070 18/15 A3004 RMK AO1
KI67 190515Z AUTO 00000KT 10SM SCT070 18/15 A3004 RMK AO1
KI67 190455Z AUTO 00000KT 10SM BKN070 19/15 A3004 RMK AO1
KI67 190435Z AUTO 00000KT 10SM BKN070 20/15 A3004 RMK AO1
KI67 190415Z AUTO 00000KT 10SM BKN070 20/15 A3003 RMK AO1
KI67 190355Z AUTO 00000KT 10SM BKN070 20/15 A3002 RMK AO1
KI67 190335Z AUTO 00000KT 10SM OVC070 20/15 A3002 RMK AO1
KI67 190315Z AUTO 00000KT 10SM BKN070 20/15 A3002 RMK AO1
KI67 190255Z AUTO 00000KT 10SM BKN070 20/15 A3002 RMK AO1
KI67 190235Z AUTO 00000KT 10SM SCT070 22/14 A3002 RMK AO1
KI67 190215Z AUTO 00000KT 10SM SCT070 22/15 A3001 RMK AO1
KI67 190155Z AUTO 00000KT 10SM BKN070 BKN080 22/15 A3000 RMK AO1
KI67 190135Z AUTO 00000KT 10SM BKN070 OVC080 22/15 A3000 RMK AO1
KI67 190115Z AUTO 00000KT 10SM SCT070 23/15 A3000 RMK AO1
KI67 190055Z AUTO 09003KT 10SM CLR 25/15 A2999 RMK AO1
KI67 190035Z AUTO 08003KT 10SM CLR 25/14 A2999 RMK AO1
KI67 190015Z AUTO 08004KT 10SM SCT070 26/14 A2999 RMK AO1
KI67 182355Z AUTO 08003KT 10SM SCT070 27/13 A2999 RMK AO1
KI67 182335Z AUTO 07005KT 10SM CLR 27/13 A2998 RMK AO1
KI67 182315Z AUTO 07006KT 10SM SCT065 28/12 A2998 RMK AO1
KI67 182255Z AUTO 06007KT 10SM SCT065 28/12 A2998 RMK AO1
KI67 182235Z AUTO 09005KT 10SM CLR 29/12 A2999 RMK AO1
KI67 182215Z AUTO 07006KT 10SM CLR 28/12 A2999 RMK AO1
KI67 182155Z AUTO 11004KT 10SM SCT065 28/12 A2999 RMK AO1
KI67 182135Z AUTO 11005KT 10SM SCT065 SCT075 30/12 A2999 RMK AO1
KI67 182115Z AUTO 02005KT 10SM BKN070 30/12 A2999 RMK AO1
KI67 182055Z AUTO 00000KT 10SM CLR 30/10 A3000 RMK AO1
KI67 182035Z AUTO 06005KT 10SM SCT075 30/12 A3001 RMK AO1
KI67 182015Z AUTO 00000KT 10SM BKN075 30/10 A3001 RMK AO1
KI67 181955Z AUTO 09006KT 10SM SCT075 29/11 A3002 RMK AO1
KI67 181935Z AUTO 00000KT 10SM 30/11 A3002 RMK AO1
KI67 181915Z AUTO 00000KT 10SM 29/10 A3003 RMK AO1
KI67 181855Z AUTO 12003KT 10SM 29/11 A3003 RMK AO1
KI67 181835Z AUTO 11005KT 10SM SCT060 28/11 A3004 RMK AO1
KI67 181815Z AUTO 08006KT 10SM SCT060 28/12 A3004 RMK AO1
KI67 181755Z AUTO 06005KT 10SM SCT060 28/12 A3004 RMK AO1
KI67 181735Z AUTO 09005KT 10SM SCT050 27/13 A3004 RMK AO1
KI67 181715Z AUTO 04004KT 10SM SCT050 27/14 A3005 RMK AO1
KI67 181655Z AUTO 00000KT 10SM CLR 26/15 A3006 RMK AO1
KI67 181635Z AUTO 00000KT 10SM CLR 26/14 A3006 RMK AO1
KI67 181615Z AUTO 16003KT 10SM CLR 25/14 A3007 RMK AO1
KI67 181555Z AUTO 08006KT 10SM CLR 25/15 A3007 RMK AO1
KI67 181535Z AUTO 05005KT 10SM CLR 25/15 A3007 RMK AO1
KI67 181515Z AUTO 00000KT 10SM CLR 24/15 A3007 RMK AO1
KI67 181455Z AUTO 04004KT 10SM 23/15 A3006 RMK AO1
KI67 181435Z AUTO 07003KT 10SM 22/15 A3007 RMK AO1
KI67 181415Z AUTO 00000KT 10SM 22/14 A3007 RMK AO1
KI67 181355Z AUTO 00000KT 10SM CLR 21/14 A3007 RMK AO1
KI67 181335Z AUTO 00000KT 10SM CLR 20/13 A3007 RMK AO1
KI67 181315Z AUTO 36004KT 10SM CLR 20/13 A3007 RMK AO1
KI67 181255Z AUTO 03005KT 10SM CLR 19/13 A3007 RMK AO1
KI67 181235Z AUTO 00000KT 10SM CLR 18/13 A3007 RMK AO1
KI67 181215Z AUTO 00000KT 10SM CLR 17/13 A3007 RMK AO1
KI67 181155Z AUTO 00000KT 10SM CLR 17/13 A3007 RMK AO1
KI67 181135Z AUTO 00000KT 10SM CLR 16/13 A3007 RMK AO1
KI67 181115Z AUTO 00000KT 10SM CLR 15/12 A3007 RMK AO1
KI67 181055Z AUTO 00000KT 10SM CLR 14/12 A3006 RMK AO1
KI67 181035Z AUTO 00000KT 10SM CLR 14/12 A3006 RMK AO1
KI67 181015Z AUTO 00000KT 10SM CLR 15/12 A3006 RMK AO1
KI67 180955Z AUTO 00000KT 10SM CLR 15/12 A3005 RMK AO1
KI67 180935Z AUTO 00000KT 10SM CLR 16/12 A3005 RMK AO1
KI67 180915Z AUTO 00000KT 10SM CLR 16/13 A3004 RMK AO1
KI67 180855Z AUTO 00000KT 10SM CLR 16/13 A3004 RMK AO1
KI67 180835Z AUTO 00000KT 10SM CLR 16/13 A3005 RMK AO1
KI67 180815Z AUTO 00000KT 10SM SCT060 17/13 A3005 RMK AO1
KI67 180755Z AUTO 00000KT 10SM CLR 17/13 A3005 RMK AO1